aviador You're here:

KLUK Decoded Metar

CINCINNATI in OH, USA
Report Time2017-08-22 21:53:00
UTC Time2017-08-22 22:29:40
Flight Rules vfr VFR
Wind250° at 08 kt
W.Decomp.*RWY 25: 8.0 kt HW 0.6 kt RCW
RWY 21: 5.8 kt HW 5.6 kt RCW
W.Rank250° ranks 13
Current wind is below 250° avg. (8.6)
Visibility9999 m
Phenomena:N/A
Clouds:Overcast 085 Hf
Expected CloudBase > 2,000 ft AGL from Temp-Dew spread
Ceiling8,500 ft
Temp26°C (ISA +12)
Dew Point21°C (74% RH)
QNH1013 hPa
Density Alt2,224 ft
Elevation509 ft
Report Wrong Elevation
Raw Report
METAR KLUK 222153Z 25008KT 10SM OVC085 26/21 A2991 RMK AO2 SLP122 T02610206=

Extra information for KLUK:More info

Metar Taf Metar & Taf Last 4 Metars F.Rules Stats Wind Profile Meteogram Temp Stats Airport Information Weather charts Add Link Nearby VenuesMetar ALERT Operation Metar Decoded Social comments

AIRNAV info for KLUK